createdAt,value
2023-02-03T00:01:20.959Z,72.43
2023-02-03T00:06:28.673Z,72.52
2023-02-03T00:11:37.041Z,72.55
2023-02-03T00:16:45.266Z,72.61
2023-02-03T00:21:53.686Z,72.71
2023-02-03T00:27:01.950Z,72.84
2023-02-03T00:32:10.778Z,72.96
2023-02-03T00:37:19.520Z,73.01
2023-02-03T00:42:26.883Z,73.03
2023-02-03T00:47:35.162Z,72.94
2023-02-03T00:52:42.509Z,72.83
2023-02-03T00:57:50.148Z,72.78
2023-02-03T01:02:58.247Z,72.73
2023-02-03T01:08:06.893Z,72.62
2023-02-03T01:13:15.128Z,72.52
2023-02-03T01:18:23.789Z,72.33
2023-02-03T01:23:32.281Z,72.28
2023-02-03T01:28:40.947Z,72.31
2023-02-03T01:33:49.821Z,72.35
2023-02-03T01:38:58.862Z,72.27
2023-02-03T01:44:41.363Z,72.29
2023-02-03T01:49:51.424Z,72.37
2023-02-03T01:55:02.502Z,72.49
2023-02-03T02:00:13.064Z,72.77
2023-02-03T02:05:32.339Z,73.00
2023-02-03T02:10:40.202Z,73.02
2023-02-03T02:15:56.900Z,73.07
2023-02-03T02:21:24.489Z,73.11
2023-02-03T02:26:58.838Z,73.21
2023-02-03T02:32:17.481Z,73.29
2023-02-03T02:37:33.292Z,73.43
2023-02-03T02:42:55.325Z,73.56
2023-02-03T02:48:11.444Z,73.55
2023-02-03T02:53:22.197Z,73.48
2023-02-03T02:58:33.973Z,73.43
2023-02-03T03:03:45.014Z,73.24
2023-02-03T03:08:58.670Z,73.13
2023-02-03T03:14:08.334Z,72.93
2023-02-03T03:19:20.982Z,72.73
2023-02-03T03:24:33.103Z,72.60
2023-02-03T03:29:48.775Z,72.51
2023-02-03T03:34:57.197Z,72.43
2023-02-03T03:40:11.589Z,72.36
2023-02-03T03:45:25.862Z,72.27
2023-02-03T03:50:37.081Z,72.23
2023-02-03T03:55:49.990Z,72.12
2023-02-03T04:01:02.573Z,72.05
2023-02-03T04:06:11.711Z,71.82
2023-02-03T04:11:34.134Z,71.46
2023-02-03T04:16:42.459Z,70.97
2023-02-03T04:21:50.813Z,70.53
2023-02-03T04:26:59.015Z,70.13
2023-02-03T04:32:07.783Z,69.76
2023-02-03T04:37:16.267Z,69.43
2023-02-03T04:42:25.156Z,69.16
2023-02-03T04:47:33.378Z,68.93
2023-02-03T04:52:41.623Z,68.72
2023-02-03T04:57:49.952Z,68.50
2023-02-03T05:02:58.352Z,68.43
2023-02-03T05:08:07.251Z,68.42
2023-02-03T05:13:16.490Z,68.34
2023-02-03T05:18:24.870Z,68.23
2023-02-03T05:23:35.471Z,68.19
2023-02-03T05:28:46.230Z,68.23
2023-02-03T05:33:54.890Z,68.30
2023-02-03T05:39:02.606Z,68.35
2023-02-03T05:44:10.219Z,68.48
2023-02-03T05:49:19.997Z,68.62
2023-02-03T05:54:28.578Z,68.70
2023-02-03T05:59:35.977Z,68.77
2023-02-03T06:04:43.229Z,68.86
2023-02-03T06:09:51.594Z,68.84
2023-02-03T06:15:00.089Z,68.76
2023-02-03T06:20:10.748Z,68.81
2023-02-03T06:25:19.121Z,68.89
2023-02-03T06:30:27.708Z,69.02
2023-02-03T06:35:36.510Z,69.18
2023-02-03T06:40:44.922Z,69.45
2023-02-03T06:45:53.109Z,69.62
2023-02-03T06:51:01.988Z,69.76
2023-02-03T06:56:10.604Z,69.88
2023-02-03T07:01:19.084Z,70.02
2023-02-03T07:06:29.650Z,70.16
2023-02-03T07:11:38.909Z,70.31
2023-02-03T07:16:47.126Z,70.40
2023-02-03T07:21:55.210Z,70.52
2023-02-03T07:27:04.586Z,70.64
2023-02-03T07:32:12.564Z,70.75
2023-02-03T07:37:20.234Z,70.85
2023-02-03T07:42:27.850Z,70.98
2023-02-03T07:47:37.262Z,71.11
2023-02-03T07:52:44.838Z,71.28
2023-02-03T07:57:52.408Z,71.45
2023-02-03T08:03:00.783Z,71.69
2023-02-03T08:08:09.237Z,71.92
2023-02-03T08:13:18.096Z,72.10
2023-02-03T08:18:26.723Z,72.24
2023-02-03T08:23:34.966Z,72.34
2023-02-03T08:28:43.219Z,72.40
2023-02-03T08:33:51.409Z,72.44
2023-02-03T08:39:00.213Z,72.41
2023-02-03T08:44:08.829Z,72.35
2023-02-03T08:49:16.914Z,72.31
2023-02-03T08:54:25.753Z,72.20
2023-02-03T08:59:36.436Z,72.10
2023-02-03T09:04:44.888Z,72.02
2023-02-03T09:09:54.282Z,71.86
2023-02-03T09:15:02.902Z,71.79
2023-02-03T09:20:13.810Z,71.79
2023-02-03T09:25:21.288Z,71.71
2023-02-03T09:30:29.781Z,71.60
2023-02-03T09:35:38.695Z,71.45
2023-02-03T09:40:49.165Z,71.43
2023-02-03T09:45:56.630Z,71.33
2023-02-03T09:51:04.312Z,71.15
2023-02-03T09:56:20.532Z,71.10
2023-02-03T10:01:33.519Z,70.96
2023-02-03T10:06:45.321Z,70.88
2023-02-03T10:12:07.829Z,70.74
2023-02-03T10:17:29.561Z,70.58
2023-02-03T10:22:43.034Z,70.42
2023-02-03T10:27:51.605Z,70.18
2023-02-03T10:33:04.066Z,69.94
2023-02-03T10:38:21.774Z,69.84
2023-02-03T10:43:50.463Z,69.78
2023-02-03T10:48:59.852Z,69.63
2023-02-03T10:54:23.946Z,69.43
2023-02-03T10:59:35.828Z,69.34
2023-02-03T11:04:44.054Z,69.26
2023-02-03T11:09:52.563Z,69.18
2023-02-03T11:15:17.257Z,69.12
2023-02-03T11:20:28.132Z,69.08
2023-02-03T11:25:36.978Z,68.94
2023-02-03T11:30:44.536Z,68.90
2023-02-03T11:36:00.916Z,68.89
2023-02-03T11:41:16.975Z,68.87
2023-02-03T11:46:25.838Z,68.73
2023-02-03T11:51:43.807Z,68.60
2023-02-03T11:57:18.662Z,68.43
2023-02-03T12:03:00.139Z,68.41
2023-02-03T12:08:20.329Z,68.26
2023-02-03T12:13:49.510Z,68.13
2023-02-03T12:19:11.567Z,68.01
2023-02-03T12:24:24.630Z,67.95
2023-02-03T12:29:39.077Z,67.98
2023-02-03T12:34:52.477Z,67.89
2023-02-03T12:40:05.500Z,67.91
2023-02-03T12:45:20.354Z,67.85
2023-02-03T12:50:34.494Z,67.78
2023-02-03T12:55:45.857Z,67.66
2023-02-03T13:01:00.474Z,67.49
2023-02-03T13:06:18.460Z,67.40
2023-02-03T13:11:32.199Z,67.32
2023-02-03T13:16:45.608Z,67.22
2023-02-03T13:21:54.439Z,67.18
2023-02-03T13:27:22.781Z,67.15
2023-02-03T13:32:46.798Z,67.04
2023-02-03T13:38:29.715Z,66.86
2023-02-03T13:43:41.405Z,66.84
2023-02-03T13:48:50.740Z,66.81
2023-02-03T13:54:04.730Z,66.95
2023-02-03T13:59:33.496Z,66.90
2023-02-03T14:04:58.569Z,66.73
2023-02-03T14:10:23.813Z,66.53
2023-02-03T14:15:40.173Z,66.25
2023-02-03T14:21:08.061Z,65.99
2023-02-03T14:26:41.756Z,65.81
2023-02-03T14:32:03.025Z,65.78
2023-02-03T14:37:33.124Z,65.59
2023-02-03T14:43:19.142Z,65.36
2023-02-03T14:48:45.064Z,65.18
2023-02-03T14:54:19.410Z,65.13
2023-02-03T14:59:33.408Z,65.22
2023-02-03T15:04:41.168Z,65.21
2023-02-03T15:09:51.827Z,65.10
2023-02-03T15:15:21.786Z,65.02
2023-02-03T15:20:50.023Z,65.17
2023-02-03T15:26:02.894Z,65.15
2023-02-03T15:31:20.429Z,65.19
2023-02-03T15:36:42.287Z,65.25
2023-02-03T15:41:57.541Z,65.24
2023-02-03T15:47:09.505Z,65.23
2023-02-03T15:52:22.860Z,65.11
2023-02-03T15:57:35.087Z,65.05
2023-02-03T16:02:47.795Z,64.92
2023-02-03T16:07:56.507Z,64.86
2023-02-03T16:13:25.903Z,64.78
2023-02-03T16:18:36.398Z,64.67
2023-02-03T16:23:54.186Z,64.58
2023-02-03T16:29:35.718Z,64.58
2023-02-03T16:35:01.833Z,64.51
2023-02-03T16:40:30.928Z,64.48
2023-02-03T16:45:56.734Z,64.50
2023-02-03T16:51:13.772Z,64.53
2023-02-03T16:56:21.419Z,64.56
2023-02-03T17:01:32.877Z,64.57
2023-02-03T17:06:44.517Z,64.51
2023-02-03T17:11:54.043Z,64.45
2023-02-03T17:17:02.973Z,64.48
2023-02-03T17:22:14.730Z,64.41
2023-02-03T17:27:22.490Z,64.43
2023-02-03T17:32:31.516Z,64.35
2023-02-03T17:37:40.236Z,64.36
2023-02-03T17:53:41.471Z,64.08
2023-02-03T17:58:49.405Z,64.04
2023-02-03T18:03:59.366Z,64.01
2023-02-03T18:09:08.427Z,63.95
2023-02-03T18:14:18.531Z,63.92
2023-02-03T18:19:26.035Z,63.83
2023-02-03T18:24:34.255Z,63.81
2023-02-03T18:29:42.818Z,63.82
2023-02-03T18:34:51.225Z,63.88
2023-02-03T18:40:01.288Z,63.96
2023-02-03T18:45:11.316Z,64.08
2023-02-03T18:50:19.908Z,64.14
2023-02-03T18:55:28.820Z,64.20
2023-02-03T19:00:37.442Z,64.22
2023-02-03T19:05:46.700Z,64.29
2023-02-03T19:10:56.508Z,64.37
2023-02-03T19:16:05.178Z,64.44
2023-02-03T19:21:15.134Z,64.43
2023-02-03T19:26:23.658Z,64.49
2023-02-03T19:31:31.809Z,64.53
2023-02-03T19:36:40.754Z,64.56
2023-02-03T19:41:49.666Z,64.57
2023-02-03T19:46:58.077Z,64.61
2023-02-03T19:52:09.499Z,64.59
2023-02-03T19:57:19.171Z,64.62
2023-02-03T20:02:27.764Z,64.65
2023-02-03T20:07:36.430Z,64.72
2023-02-03T20:12:44.607Z,64.81
2023-02-03T20:17:52.670Z,64.92
2023-02-03T20:23:01.208Z,65.04
2023-02-03T20:28:13.788Z,65.17
2023-02-03T20:33:21.638Z,65.29
2023-02-03T20:38:29.266Z,65.38
2023-02-03T20:43:38.411Z,65.48
2023-02-03T20:48:46.516Z,65.56
2023-02-03T20:53:53.976Z,65.66
2023-02-03T20:59:02.103Z,65.75
2023-02-03T21:04:33.752Z,65.83
2023-02-03T21:09:41.223Z,65.90
2023-02-03T21:14:50.855Z,65.95
2023-02-03T21:20:00.060Z,66.00
2023-02-03T21:25:26.062Z,66.04
2023-02-03T21:30:35.530Z,66.07
2023-02-03T21:35:44.259Z,66.12
2023-02-03T21:40:54.319Z,66.16
2023-02-03T21:46:03.217Z,66.20
2023-02-03T21:51:19.377Z,66.23
2023-02-03T21:56:29.188Z,66.27
2023-02-03T22:01:39.562Z,66.29
2023-02-03T22:06:49.529Z,66.31
2023-02-03T22:11:57.938Z,66.33
2023-02-03T22:17:06.161Z,66.36
2023-02-03T22:22:13.972Z,66.38
2023-02-03T22:27:22.744Z,66.39
2023-02-03T22:32:31.082Z,66.35
2023-02-03T22:37:39.201Z,66.32
2023-02-03T22:42:48.315Z,66.31
2023-02-03T22:47:57.605Z,66.26
2023-02-03T22:53:07.369Z,66.22
2023-02-03T22:58:15.484Z,66.21
2023-02-03T23:03:23.493Z,66.19
2023-02-03T23:08:31.621Z,66.20
2023-02-03T23:13:40.471Z,66.15
2023-02-03T23:18:48.894Z,66.16
2023-02-03T23:23:57.076Z,66.15
2023-02-03T23:29:06.026Z,66.15
2023-02-03T23:34:31.297Z,66.14
2023-02-03T23:39:39.503Z,66.12
2023-02-03T23:44:44.777Z,66.10
2023-02-03T23:49:53.076Z,66.08
2023-02-03T23:55:01.412Z,66.02
